Uncorked — WDJ4013 — position and weather

sailwx.info

Track history (hours):
 
Tides and Currents Weather Stations Pressure Air Temp Water Temp Dewpoint Dewpoint Depression Visibility Wind Speed Wind Dir Waves Ship Positions

Uncorked

Owner: Pette, Gregory A, miramar, FL. More information available from US FCC via Universal Licensing System and Coast Guard Vessel Documentation Center.

Last reported at 2018-Aug-14 06:55 UTC. Time now 2018-Aug-14 07:04 UTC.
Position N 26°13' W 080°06'.

Length 15 m.

Type: Pleasure craft. MMSI: 367773560.

Date/timePositionNaut miles runAvg speedWind from/ knotsBaromVisibWave heightAir tempDewpointWater temp
2018-Aug-14 06:55N 26°13' W 080°06'0 0.0
2018-Aug-14 06:28N 26°13' W 080°06'0 0.0
2018-Aug-14 05:40N 26°13' W 080°06'0 0.0
2018-Aug-14 05:28N 26°13' W 080°06'0 0.0
2018-Aug-14 04:43N 26°13' W 080°06'0 0.0
2018-Aug-14 04:25N 26°13' W 080°06'0 0.0
2018-Aug-14 04:00N 26°13' W 080°06'0 0.0
2018-Aug-14 03:21N 26°13' W 080°06'0 0.0
2018-Aug-14 02:51N 26°13' W 080°06'0 0.0
2018-Aug-14 02:21N 26°13' W 080°06'0 0.0
2018-Aug-14 01:51N 26°13' W 080°06'0 0.0
2018-Aug-14 01:24N 26°13' W 080°06'0 0.0
2018-Aug-14 00:51N 26°13' W 080°06'0 0.0
2018-Aug-14 00:21N 26°13' W 080°06'0 0.0
2018-Aug-13 23:51N 26°13' W 080°06'0 0.0
2018-Aug-13 23:21N 26°13' W 080°06'0 0.0
2018-Aug-13 22:57N 26°13' W 080°06'0 0.0
2018-Aug-13 21:51N 26°13' W 080°06'0 0.0
2018-Aug-13 20:09N 26°13' W 080°06'0 0.0
2018-Aug-13 19:57N 26°13' W 080°06'0 0.0
2018-Aug-13 19:15N 26°13' W 080°06'0 0.0
2018-Aug-13 18:57N 26°13' W 080°06'0 0.0
2018-Aug-13 18:30N 26°13' W 080°06'0 0.0
2018-Aug-13 17:45N 26°13' W 080°06'0 0.0
2018-Aug-13 17:27N 26°13' W 080°06'0 0.0
2018-Aug-13 16:45N 26°13' W 080°06'0 0.0
2018-Aug-13 16:30N 26°13' W 080°06'0 0.0
2018-Aug-13 15:57N 26°13' W 080°06'0 0.0
2018-Aug-13 15:27N 26°13' W 080°06'0 0.0
2018-Aug-13 15:00N 26°13' W 080°06'0 0.0
2018-Aug-13 14:30N 26°13' W 080°06'0 0.0
2018-Aug-13 13:45N 26°13' W 080°06'0 0.0
2018-Aug-13 13:03N 26°13' W 080°06'0 0.0
2018-Aug-13 12:51N 26°13' W 080°06'0 0.0
2018-Aug-13 12:30N 26°13' W 080°06'0 0.0
2018-Aug-13 11:51N 26°13' W 080°06'0 0.0
2018-Aug-13 11:21N 26°13' W 080°06'0 0.0
2018-Aug-13 10:48N 26°13' W 080°06'0 0.0
2018-Aug-13 10:21N 26°13' W 080°06'0 0.0
2018-Aug-13 09:51N 26°13' W 080°06'0 0.0
2018-Aug-13 09:21N 26°13' W 080°06'0 0.0
2018-Aug-13 08:54N 26°13' W 080°06'0 0.0
2018-Aug-13 08:24N 26°13' W 080°06'0 0.0
2018-Aug-13 07:54N 26°13' W 080°06'0 0.0
2018-Aug-13 07:21N 26°13' W 080°06'0 0.0
2018-Aug-13 06:54N 26°13' W 080°06'0 0.0
2018-Aug-13 06:21N 26°13' W 080°06'0 0.0
2018-Aug-13 05:57N 26°13' W 080°06'0 0.0
2018-Aug-13 05:27N 26°13' W 080°06'0 0.0
2018-Aug-13 04:57N 26°13' W 080°06'0 0.0
2018-Aug-13 04:24N 26°13' W 080°06'0 0.0
2018-Aug-13 03:57N 26°13' W 080°06'0 0.0
2018-Aug-13 03:09N 26°13' W 080°06'0 0.0
2018-Aug-13 02:57N 26°13' W 080°06'0 0.0
2018-Aug-13 02:30N 26°13' W 080°06'0 0.0
2018-Aug-13 01:13N 26°13' W 080°06'1 3.7
2018-Aug-13 00:59N 26°14' W 080°06'0 0.1
2018-Aug-13 00:19N 26°14' W 080°06'0 0.0
2018-Aug-12 23:31N 26°14' W 080°06'0 0.0
2018-Aug-12 23:01N 26°14' W 080°06'0 0.1
2018-Aug-12 22:51N 26°14' W 080°06'2 4.6
2018-Aug-12 22:29N 26°16' W 080°05'3 4.9
2018-Aug-12 21:56N 26°13' W 080°05'0 0.0
2018-Aug-12 21:29N 26°13' W 080°05'0 0.0
2018-Aug-12 20:55N 26°13' W 080°05'0 0.0
2018-Aug-12 20:30N 26°13' W 080°05'0 0.0
2018-Aug-12 19:58N 26°13' W 080°05'3 5.4
2018-Aug-12 19:27N 26°16' W 080°05'2 4.0
2018-Aug-12 18:53N 26°14' W 080°06'1 1.0
2018-Aug-12 18:19N 26°13' W 080°06'0 0.0
2018-Aug-12 17:58N 26°13' W 080°06'0 0.0
2018-Aug-12 17:19N 26°13' W 080°06'0 0.0
2018-Aug-12 16:34N 26°13' W 080°06'0 0.0
2018-Aug-12 16:16N 26°13' W 080°06'0 0.0
2018-Aug-12 15:49N 26°13' W 080°06'0 0.0
2018-Aug-12 14:49N 26°13' W 080°06'0 0.0
2018-Aug-12 14:07N 26°13' W 080°06'0 0.0
2018-Aug-12 13:49N 26°13' W 080°06'0 0.0
2018-Aug-12 13:07N 26°13' W 080°06'0 0.0
2018-Aug-12 12:49N 26°13' W 080°06'0 0.0
2018-Aug-12 12:21N 26°13' W 080°06'0 0.0
2018-Aug-12 12:00N 26°13' W 080°06'0 0.0
2018-Aug-12 11:30N 26°13' W 080°06'0 0.0
2018-Aug-12 11:00N 26°13' W 080°06'0 0.0
2018-Aug-12 10:30N 26°13' W 080°06'0 0.0
2018-Aug-12 10:00N 26°13' W 080°06'0 0.0
2018-Aug-12 09:18N 26°13' W 080°06'0 0.0
2018-Aug-12 09:00N 26°13' W 080°06'0 0.0
2018-Aug-12 08:30N 26°13' W 080°06'0 0.0
2018-Aug-12 08:00N 26°13' W 080°06'0 0.0
2018-Aug-12 07:30N 26°13' W 080°06'0 0.0
2018-Aug-12 07:00N 26°13' W 080°06'0 0.0
2018-Aug-12 06:18N 26°13' W 080°06'0 0.0
2018-Aug-12 06:00N 26°13' W 080°06'0 0.0
2018-Aug-12 05:30N 26°13' W 080°06'0 0.0
2018-Aug-12 04:51N 26°13' W 080°06'0 0.0
2018-Aug-12 04:18N 26°13' W 080°06'0 0.0
2018-Aug-12 03:51N 26°13' W 080°06'0 0.0
2018-Aug-12 03:24N 26°13' W 080°06'0 0.0
2018-Aug-12 02:54N 26°13' W 080°06'0 0.0
2018-Aug-12 02:24N 26°13' W 080°06'0 0.0
2018-Aug-12 01:51N 26°13' W 080°06'0 0.0
2018-Aug-12 01:21N 26°13' W 080°06'0 0.0
2018-Aug-12 00:54N 26°13' W 080°06'0 0.0
2018-Aug-12 00:24N 26°13' W 080°06'0 0.0
2018-Aug-11 23:51N 26°13' W 080°06'0 0.0
2018-Aug-11 23:27N 26°13' W 080°06'0 0.0
2018-Aug-11 22:57N 26°13' W 080°06'0 0.0
2018-Aug-11 22:27N 26°13' W 080°06'0 0.0
2018-Aug-11 21:30N 26°13' W 080°06'0 0.0
2018-Aug-11 21:00N 26°13' W 080°06'0 0.0
2018-Aug-11 20:30N 26°13' W 080°06'0 0.0
2018-Aug-11 20:00N 26°13' W 080°06'0 0.0
2018-Aug-11 19:28N 26°13' W 080°06'0 0.0
2018-Aug-11 18:58N 26°13' W 080°06'0 0.0
2018-Aug-11 18:16N 26°13' W 080°06'0 0.0
2018-Aug-11 17:49N 26°13' W 080°06'0 0.0
2018-Aug-11 15:49N 26°13' W 080°06'0 0.0
2018-Aug-11 15:19N 26°13' W 080°06'0 0.0
2018-Aug-11 14:49N 26°13' W 080°06'0 0.0
2018-Aug-11 14:07N 26°13' W 080°06'0 0.0
2018-Aug-11 13:55N 26°13' W 080°06'0 0.0
2018-Aug-11 13:25N 26°13' W 080°06'0 0.0
2018-Aug-11 12:55N 26°13' W 080°06'0 0.0
2018-Aug-11 11:31N 26°13' W 080°06'0 0.0
2018-Aug-11 10:19N 26°13' W 080°06'0 0.0
2018-Aug-11 09:49N 26°13' W 080°06'0 0.0
2018-Aug-11 09:19N 26°13' W 080°06'0 0.0
2018-Aug-11 08:46N 26°13' W 080°06'0 0.0
2018-Aug-11 08:03N 26°13' W 080°06'0 0.0
2018-Aug-11 07:46N 26°13' W 080°06'0 0.0
2018-Aug-11 07:19N 26°13' W 080°06'0 0.0
2018-Aug-11 06:52N 26°13' W 080°06'0 0.0
2018-Aug-11 06:22N 26°13' W 080°06'0 0.0
2018-Aug-11 05:55N 26°13' W 080°06'0 0.0
2018-Aug-11 05:25N 26°13' W 080°06'0 0.0
2018-Aug-11 04:55N 26°13' W 080°06'0 0.0
2018-Aug-11 04:25N 26°13' W 080°06'0 0.0
2018-Aug-11 03:55N 26°13' W 080°06'0 0.0
2018-Aug-11 03:28N 26°13' W 080°06'0 0.0
2018-Aug-11 02:55N 26°13' W 080°06'0 0.0
2018-Aug-11 02:28N 26°13' W 080°06'0 0.0
2018-Aug-11 01:55N 26°13' W 080°06'0 0.0
2018-Aug-11 01:10N 26°13' W 080°06'0 0.0
2018-Aug-11 00:58N 26°13' W 080°06'0 0.0
2018-Aug-11 00:28N 26°13' W 080°06'0 0.0
2018-Aug-10 23:58N 26°13' W 080°06'0 0.0
2018-Aug-10 23:25N 26°13' W 080°06'0 0.0
2018-Aug-10 22:58N 26°13' W 080°06'0 0.0
2018-Aug-10 22:28N 26°13' W 080°06'0 0.0
2018-Aug-10 20:58N 26°13' W 080°06'0 0.0
2018-Aug-10 20:28N 26°13' W 080°06'0 0.0
2018-Aug-10 19:04N 26°13' W 080°06'0 0.0
2018-Aug-10 18:34N 26°13' W 080°06'0 0.0
2018-Aug-10 18:22N 26°13' W 080°06'0 0.0
2018-Aug-10 17:34N 26°13' W 080°06'0 0.0
2018-Aug-10 17:22N 26°13' W 080°06'0 0.0
2018-Aug-10 16:52N 26°13' W 080°06'0 0.0
2018-Aug-10 16:22N 26°13' W 080°06'0 0.0
2018-Aug-10 15:52N 26°13' W 080°06'0 0.0
2018-Aug-10 15:22N 26°13' W 080°06'0 0.0
2018-Aug-10 14:52N 26°13' W 080°06'0 0.0
2018-Aug-10 14:25N 26°13' W 080°06'0 0.0
2018-Aug-10 13:52N 26°13' W 080°06'0 0.0
2018-Aug-10 13:25N 26°13' W 080°06'0 0.0
2018-Aug-10 12:55N 26°13' W 080°06'0 0.0
2018-Aug-10 12:28N 26°13' W 080°06'0 0.0
2018-Aug-10 11:58N 26°13' W 080°06'0 0.0
2018-Aug-10 11:30N 26°13' W 080°06'0 0.0
2018-Aug-10 10:58N 26°13' W 080°06'0 0.0
2018-Aug-10 10:28N 26°13' W 080°06'0 0.0
2018-Aug-10 09:55N 26°13' W 080°06'0 0.0
2018-Aug-10 09:28N 26°13' W 080°06'0 0.0
2018-Aug-10 08:55N 26°13' W 080°06'0 0.0
2018-Aug-10 08:28N 26°13' W 080°06'0 0.0
2018-Aug-10 07:58N 26°13' W 080°06'0 0.0
2018-Aug-10 07:16N 26°13' W 080°06'0 0.0
2018-Aug-10 06:58N 26°13' W 080°06'0 0.0
2018-Aug-10 06:31N 26°13' W 080°06'0 0.0
2018-Aug-10 05:46N 26°13' W 080°06'0 0.0
2018-Aug-10 05:31N 26°13' W 080°06'0 0.0
2018-Aug-10 04:49N 26°13' W 080°06'0 0.0
2018-Aug-10 04:19N 26°13' W 080°06'0 0.0
2018-Aug-10 03:49N 26°13' W 080°06'0 0.0
2018-Aug-10 03:31N 26°13' W 080°06'0 0.0
2018-Aug-10 03:01N 26°13' W 080°06'0 0.0
2018-Aug-10 02:31N 26°13' W 080°06'0 0.0
2018-Aug-10 02:01N 26°13' W 080°06'0 0.0
2018-Aug-10 01:31N 26°13' W 080°06'0 0.0
2018-Aug-10 01:00N 26°13' W 080°06'0 0.0
2018-Aug-10 00:22N 26°13' W 080°06'0 0.0
2018-Aug-09 23:51N 26°13' W 080°06'0 0.0
2018-Aug-09 23:06N 26°13' W 080°06'0 0.0
2018-Aug-09 22:48N 26°13' W 080°06'0 0.0
2018-Aug-09 22:21N 26°13' W 080°06'0 0.0
2018-Aug-09 21:54N 26°13' W 080°06'0 0.0
2018-Aug-09 21:24N 26°13' W 080°06'0 0.0
2018-Aug-09 20:51N 26°13' W 080°06'0 0.0
2018-Aug-09 20:24N 26°13' W 080°06'0 0.0
2018-Aug-09 19:54N 26°13' W 080°06'0 0.0
2018-Aug-09 19:24N 26°13' W 080°06'0 0.0
2018-Aug-09 18:57N 26°13' W 080°06'0 0.0
2018-Aug-09 18:27N 26°13' W 080°06'0 0.0
2018-Aug-09 17:54N 26°13' W 080°06'0 0.0
2018-Aug-09 17:24N 26°13' W 080°06'0 0.0
2018-Aug-09 16:57N 26°13' W 080°06'0 0.0
2018-Aug-09 16:24N 26°13' W 080°06'0 0.0
2018-Aug-09 16:00N 26°13' W 080°06'0 0.0
2018-Aug-09 15:30N 26°13' W 080°06'0 0.0
2018-Aug-09 15:00N 26°13' W 080°06'0 0.0
2018-Aug-09 14:30N 26°13' W 080°06'0 0.0
2018-Aug-09 14:00N 26°13' W 080°06'0 0.0
2018-Aug-09 13:30N 26°13' W 080°06'0 0.0
2018-Aug-09 13:00N 26°13' W 080°06'0 0.0
2018-Aug-09 12:30N 26°13' W 080°06'0 0.0
2018-Aug-09 12:00N 26°13' W 080°06'0 0.0
2018-Aug-09 11:30N 26°13' W 080°06'0 0.0
2018-Aug-09 10:33N 26°13' W 080°06'0 0.0
2018-Aug-09 10:30N 26°13' W 080°06'0 0.0
2018-Aug-09 10:00N 26°13' W 080°06'0 0.0
2018-Aug-09 09:30N 26°13' W 080°06'0 0.0
2018-Aug-09 09:00N 26°13' W 080°06'0 0.0
2018-Aug-09 08:21N 26°13' W 080°06'0 0.0
2018-Aug-09 07:51N 26°13' W 080°06'0 0.0
2018-Aug-09 07:21N 26°13' W 080°06'0 0.0
2018-Aug-09 06:54N 26°13' W 080°06'0 0.0
2018-Aug-09 06:21N 26°13' W 080°06'0 0.0
2018-Aug-09 05:48N 26°13' W 080°06'0 0.0
2018-Aug-09 05:20N 26°13' W 080°06'0 0.0
2018-Aug-09 04:50N 26°13' W 080°06'0 0.0
2018-Aug-09 04:23N 26°13' W 080°06'0 0.0
2018-Aug-09 03:53N 26°13' W 080°06'0 0.0
2018-Aug-09 03:23N 26°13' W 080°06'0 0.0
2018-Aug-09 02:53N 26°13' W 080°06'0 0.0
2018-Aug-09 02:20N 26°13' W 080°06'0 0.0
2018-Aug-09 01:53N 26°13' W 080°06'0 0.0
2018-Aug-09 01:26N 26°13' W 080°06'0 0.0
2018-Aug-09 00:56N 26°13' W 080°06'0 0.0
2018-Aug-09 00:26N 26°13' W 080°06'0 0.0
2018-Aug-08 23:56N 26°13' W 080°06'0 0.0
2018-Aug-08 23:26N 26°13' W 080°06'0 0.0
2018-Aug-08 22:38N 26°13' W 080°06'0 0.0
2018-Aug-08 22:26N 26°13' W 080°06'0 0.0
2018-Aug-08 21:56N 26°13' W 080°06'0 0.0
2018-Aug-08 21:23N 26°13' W 080°06'0 0.0
2018-Aug-08 20:56N 26°13' W 080°06'0 0.0
2018-Aug-08 20:26N 26°13' W 080°06'0 0.0
2018-Aug-08 19:49N 26°13' W 080°06'0 0.0
2018-Aug-08 19:26N 26°13' W 080°06'0 0.0
2018-Aug-08 18:37N 26°13' W 080°06'0 0.0
2018-Aug-08 17:37N 26°13' W 080°06'0 0.0
2018-Aug-08 17:07N 26°13' W 080°06'0 0.0
2018-Aug-08 16:48N 26°13' W 080°06'0 0.0
2018-Aug-08 16:24N 26°13' W 080°06'0 0.0
2018-Aug-08 15:54N 26°13' W 080°06'0 0.0
2018-Aug-08 15:24N 26°13' W 080°06'0 0.0
2018-Aug-08 14:54N 26°13' W 080°06'0 0.0
2018-Aug-08 14:24N 26°13' W 080°06'0 0.0
2018-Aug-08 13:57N 26°13' W 080°06'0 0.0
2018-Aug-08 13:27N 26°13' W 080°06'0 0.0
2018-Aug-08 12:57N 26°13' W 080°06'0 0.0
2018-Aug-08 12:24N 26°13' W 080°06'0 0.0
2018-Aug-08 11:57N 26°13' W 080°06'0 0.0
2018-Aug-08 11:30N 26°13' W 080°06'0 0.0
2018-Aug-08 11:00N 26°13' W 080°06'0 0.0
2018-Aug-08 10:30N 26°13' W 080°06'0 0.0
2018-Aug-08 09:45N 26°13' W 080°06'0 0.0
2018-Aug-08 09:30N 26°13' W 080°06'0 0.0
2018-Aug-08 09:00N 26°13' W 080°06'0 0.0
2018-Aug-08 08:30N 26°13' W 080°06'0 0.0
2018-Aug-08 08:00N 26°13' W 080°06'0 0.0
2018-Aug-08 07:30N 26°13' W 080°06'0 0.0
2018-Aug-08 07:00N 26°13' W 080°06'0 0.0
2018-Aug-08 06:30N 26°13' W 080°06'0 0.0
2018-Aug-08 06:00N 26°13' W 080°06'0 0.0
2018-Aug-08 05:30N 26°13' W 080°06'0 0.0
2018-Aug-08 04:51N 26°13' W 080°06'0 0.0
2018-Aug-08 04:21N 26°13' W 080°06'0 0.0
2018-Aug-08 03:48N 26°13' W 080°06'0 0.0
2018-Aug-08 03:24N 26°13' W 080°06'0 0.0
2018-Aug-08 02:54N 26°13' W 080°06'0 0.0
2018-Aug-08 02:24N 26°13' W 080°06'0 0.0
2018-Aug-08 01:54N 26°13' W 080°06'0 0.0
2018-Aug-08 01:21N 26°13' W 080°06'0 0.0
2018-Aug-08 00:42N 26°13' W 080°06'0 0.0
2018-Aug-08 00:21N 26°13' W 080°06'0 0.0
2018-Aug-07 23:57N 26°13' W 080°06'0 0.0
2018-Aug-07 23:28N 26°13' W 080°06'0 0.0
2018-Aug-07 22:55N 26°13' W 080°06'0 0.0
2018-Aug-07 22:28N 26°13' W 080°06'0 0.0
2018-Aug-07 21:58N 26°13' W 080°06'0 0.0
2018-Aug-07 21:28N 26°13' W 080°06'0 0.0
2018-Aug-07 20:51N 26°13' W 080°06'0 0.0
2018-Aug-07 20:21N 26°13' W 080°06'0 0.0
2018-Aug-07 19:51N 26°13' W 080°06'0 0.0
2018-Aug-07 19:24N 26°13' W 080°06'0 0.0
2018-Aug-07 18:51N 26°13' W 080°06'0 0.0
2018-Aug-07 18:21N 26°13' W 080°06'0 0.0
2018-Aug-07 17:54N 26°13' W 080°06'0 0.0
2018-Aug-07 17:24N 26°13' W 080°06'0 0.0
2018-Aug-07 16:57N 26°13' W 080°06'0 0.0
2018-Aug-07 16:27N 26°13' W 080°06'0 0.0
2018-Aug-07 15:57N 26°13' W 080°06'0 0.0
2018-Aug-07 15:27N 26°13' W 080°06'0 0.0
2018-Aug-07 14:57N 26°13' W 080°06'0 0.0
2018-Aug-07 14:30N 26°13' W 080°06'0 0.0
2018-Aug-07 14:00N 26°13' W 080°06'0 0.0
2018-Aug-07 13:24N 26°13' W 080°06'0 0.0
2018-Aug-07 13:00N 26°13' W 080°06'0 0.0
2018-Aug-07 12:27N 26°13' W 080°06'0 0.0
2018-Aug-07 12:00N 26°13' W 080°06'0 0.0
2018-Aug-07 11:15N 26°13' W 080°06'0 0.0
2018-Aug-07 10:45N 26°13' W 080°06'0 0.0
2018-Aug-07 10:15N 26°13' W 080°06'0 0.0
2018-Aug-07 09:45N 26°13' W 080°06'0 0.0
2018-Aug-07 09:15N 26°13' W 080°06'0 0.0
2018-Aug-07 08:45N 26°13' W 080°06'0 0.0
2018-Aug-07 08:30N 26°13' W 080°06'0 0.0
2018-Aug-07 07:21N 26°13' W 080°06'0 0.0
2018-Aug-07 06:51N 26°13' W 080°06'0 0.0
2018-Aug-07 06:21N 26°13' W 080°06'0 0.0
2018-Aug-07 05:51N 26°13' W 080°06'0 0.0
2018-Aug-07 05:21N 26°13' W 080°06'0 0.0
2018-Aug-07 04:51N 26°13' W 080°06'0 0.0
2018-Aug-07 04:21N 26°13' W 080°06'0 0.1
2018-Aug-07 03:26N 26°13' W 080°06'2 4.4
2018-Aug-07 02:57N 26°11' W 080°06'3 5.8
2018-Aug-07 02:26N 26°08' W 080°07'2 3.7
2018-Aug-07 01:53N 26°06' W 080°07'0 0.0
2018-Aug-07 01:23N 26°06' W 080°07'0 0.0
2018-Aug-07 00:50N 26°06' W 080°07'0 0.1
2018-Aug-07 00:30N 26°06' W 080°07'2 4.6
2018-Aug-07 00:00N 26°08' W 080°06'3 5.7
2018-Aug-06 23:28N 26°11' W 080°06'2 3.1
2018-Aug-06 22:53N 26°13' W 080°06'0 0.0
2018-Aug-06 22:24N 26°13' W 080°06'1 2.3
2018-Aug-06 22:00N 26°14' W 080°06'0 0.1
2018-Aug-06 21:14N 26°14' W 080°06'0 0.0
2018-Aug-06 20:56N 26°14' W 080°06'0 0.0
2018-Aug-06 20:05N 26°14' W 080°06'0 0.8
2018-Aug-06 19:51N 26°14' W 080°06'1 1.0
2018-Aug-06 19:02N 26°13' W 080°06'0 0.0
2018-Aug-06 18:44N 26°13' W 080°06'0 0.0
2018-Aug-06 18:20N 26°13' W 080°06'0 0.0
2018-Aug-06 17:50N 26°13' W 080°06'0 0.0
2018-Aug-06 17:20N 26°13' W 080°06'0 0.0
2018-Aug-06 16:50N 26°13' W 080°06'0 0.0
2018-Aug-06 16:23N 26°13' W 080°06'0 0.0
2018-Aug-06 15:53N 26°13' W 080°06'0 0.0
2018-Aug-06 15:20N 26°13' W 080°06'0 0.0
2018-Aug-06 14:53N 26°13' W 080°06'0 0.0
2018-Aug-06 14:23N 26°13' W 080°06'0 0.0
2018-Aug-06 13:50N 26°13' W 080°06'0 0.0
2018-Aug-06 13:26N 26°13' W 080°06'0 0.0
2018-Aug-06 12:57N 26°13' W 080°06'0 0.0
2018-Aug-06 12:23N 26°13' W 080°06'0 0.0
2018-Aug-06 11:56N 26°13' W 080°06'0 0.0
2018-Aug-06 11:23N 26°13' W 080°06'0 0.0
2018-Aug-06 10:38N 26°13' W 080°06'0 0.0
2018-Aug-06 10:26N 26°13' W 080°06'0 0.0
2018-Aug-06 09:56N 26°13' W 080°06'0 0.0
2018-Aug-06 09:26N 26°13' W 080°06'0 0.0
2018-Aug-06 08:56N 26°13' W 080°06'0 0.0
2018-Aug-06 08:29N 26°13' W 080°06'0 0.0
2018-Aug-06 07:59N 26°13' W 080°06'0 0.0
2018-Aug-06 07:29N 26°13' W 080°06'0 0.0
2018-Aug-06 06:59N 26°13' W 080°06'0 0.0
2018-Aug-06 06:29N 26°13' W 080°06'0 0.0
2018-Aug-06 05:59N 26°13' W 080°06'0 0.0
2018-Aug-06 05:26N 26°13' W 080°06'0 0.0
2018-Aug-06 04:59N 26°13' W 080°06'0 0.0
2018-Aug-06 04:29N 26°13' W 080°06'0 0.0
2018-Aug-06 03:59N 26°13' W 080°06'0 0.0
2018-Aug-06 03:29N 26°13' W 080°06'0 0.0
2018-Aug-06 02:59N 26°13' W 080°06'0 0.0
2018-Aug-06 02:29N 26°13' W 080°06'0 0.0
2018-Aug-06 01:50N 26°13' W 080°06'0 0.1
2018-Aug-06 01:14N 26°13' W 080°06'1 3.5
2018-Aug-06 00:58N 26°14' W 080°06'2 3.4
2018-Aug-06 00:28N 26°16' W 080°05'0 0.1
2018-Aug-05 23:53N 26°16' W 080°05'2 4.5
2018-Aug-05 23:27N 26°14' W 080°06'1 1.7
2018-Aug-05 23:00N 26°13' W 080°06'0 0.0
2018-Aug-05 22:30N 26°13' W 080°06'0 0.0
2018-Aug-05 21:48N 26°13' W 080°06'0 0.0
2018-Aug-05 21:18N 26°13' W 080°06'0 0.0
2018-Aug-05 21:00N 26°13' W 080°06'0 0.0
2018-Aug-05 20:21N 26°13' W 080°06'0 0.0
2018-Aug-05 20:00N 26°13' W 080°06'0 0.0
2018-Aug-05 19:21N 26°13' W 080°06'0 0.0
2018-Aug-05 18:44N 26°13' W 080°06'0 1.8
2018-Aug-05 18:30N 26°13' W 080°06'2 1.0
2018-Aug-05 16:28N 26°11' W 080°06'2 4.0
2018-Aug-05 15:59N 26°13' W 080°06'0 0.9
2018-Aug-05 15:30N 26°13' W 080°06'611.5
2018-Aug-05 15:00N 26°19' W 080°06'6 5.0
2018-Aug-05 13:51N 26°13' W 080°06'0 0.0
2018-Aug-05 13:15N 26°13' W 080°06'0 0.0
2018-Aug-05 12:51N 26°13' W 080°06'0 0.0
2018-Aug-05 12:21N 26°13' W 080°06'0 0.0
2018-Aug-05 11:54N 26°13' W 080°06'0 0.0
2018-Aug-05 11:21N 26°13' W 080°06'0 0.0
2018-Aug-05 10:51N 26°13' W 080°06'0 0.0
2018-Aug-05 10:21N 26°13' W 080°06'0 0.0
2018-Aug-05 09:51N 26°13' W 080°06'0 0.0
2018-Aug-05 09:21N 26°13' W 080°06'0 0.0
2018-Aug-05 08:54N 26°13' W 080°06'0 0.0
2018-Aug-05 08:27N 26°13' W 080°06'0 0.0
2018-Aug-05 07:42N 26°13' W 080°06'0 0.0
2018-Aug-05 07:24N 26°13' W 080°06'510.6
2018-Aug-05 06:54N 26°19' W 080°06'3 6.6
2018-Aug-05 06:24N 26°15' W 080°06'2 4.9
2018-Aug-05 06:00N 26°13' W 080°06'0 0.0
2018-Aug-05 05:27N 26°13' W 080°06'0 0.0
2018-Aug-05 05:00N 26°13' W 080°06'0 0.0
2018-Aug-05 04:15N 26°13' W 080°06'0 0.0
2018-Aug-05 03:57N 26°13' W 080°06'0 0.0
2018-Aug-05 03:30N 26°13' W 080°06'0 0.0
2018-Aug-05 02:57N 26°13' W 080°06'0 0.0
2018-Aug-05 02:30N 26°13' W 080°06'0 0.0
2018-Aug-05 01:57N 26°13' W 080°06'0 0.0
2018-Aug-05 01:30N 26°13' W 080°06'0 0.0
2018-Aug-05 00:45N 26°13' W 080°06'0 0.0
2018-Aug-05 00:18N 26°13' W 080°06'0 0.0
2018-Aug-04 23:51N 26°13' W 080°06'410.0
2018-Aug-04 23:30N 26°17' W 080°06'4 7.0
2018-Aug-04 23:00N 26°13' W 080°06'0 0.0
2018-Aug-04 22:03N 26°13' W 080°06'0 0.0
2018-Aug-04 21:51N 26°13' W 080°06'0 0.0
2018-Aug-04 21:03N 26°13' W 080°06'0 0.0
2018-Aug-04 20:51N 26°13' W 080°06'0 0.0
2018-Aug-04 20:24N 26°13' W 080°06'0 0.0
2018-Aug-04 19:54N 26°13' W 080°06'0 0.0
2018-Aug-04 19:24N 26°13' W 080°06'0 0.0
2018-Aug-04 18:54N 26°13' W 080°06'0 0.0
2018-Aug-04 18:24N 26°13' W 080°06'0 0.0
2018-Aug-04 17:54N 26°13' W 080°06'0 0.0
2018-Aug-04 17:27N 26°13' W 080°06'0 0.0
2018-Aug-04 16:57N 26°13' W 080°06'0 0.0
2018-Aug-04 16:27N 26°13' W 080°06'0 0.0
2018-Aug-04 15:57N 26°13' W 080°06'0 0.0
2018-Aug-04 15:27N 26°13' W 080°06'0 0.0
2018-Aug-04 14:57N 26°13' W 080°06'0 0.0
2018-Aug-04 14:30N 26°13' W 080°06'0 0.0
2018-Aug-04 14:00N 26°13' W 080°06'0 0.0
2018-Aug-04 13:30N 26°13' W 080°06'0 0.0
2018-Aug-04 13:00N 26°13' W 080°06'0 0.0
2018-Aug-04 12:30N 26°13' W 080°06'0 0.0
2018-Aug-04 12:00N 26°13' W 080°06'0 0.0
2018-Aug-04 11:30N 26°13' W 080°06'0 0.0
2018-Aug-04 11:00N 26°13' W 080°06'0 0.0
2018-Aug-04 10:03N 26°13' W 080°06'0 0.0
2018-Aug-04 10:00N 26°13' W 080°06'0 0.0
2018-Aug-04 09:18N 26°13' W 080°06'0 0.0
2018-Aug-04 08:48N 26°13' W 080°06'0 0.0
2018-Aug-04 08:30N 26°13' W 080°06'0 0.0
2018-Aug-04 08:00N 26°13' W 080°06'0 0.0
2018-Aug-04 07:30N 26°13' W 080°06'  
Track history (hours):
 
Tides and Currents Weather Stations Pressure Air Temp Water Temp Dewpoint Dewpoint Depression Visibility Wind Speed Wind Dir Waves Ship Positions

Uncorked

Owner: Pette, Gregory A, miramar, FL. More information available from US FCC via Universal Licensing System and Coast Guard Vessel Documentation Center.

Last reported at 2018-Aug-14 06:55 UTC. Time now 2018-Aug-14 07:04 UTC.
Position N 26°13' W 080°06'.

Length 15 m.

Type: Pleasure craft. MMSI: 367773560.

Date/timePositionNaut miles runAvg speedWind from/ knotsBaromVisibWave heightAir tempDewpointWater temp
2018-Aug-14 06:55N 26°13' W 080°06'0 0.0
2018-Aug-14 06:28N 26°13' W 080°06'0 0.0
2018-Aug-14 05:40N 26°13' W 080°06'0 0.0
2018-Aug-14 05:28N 26°13' W 080°06'0 0.0
2018-Aug-14 04:43N 26°13' W 080°06'0 0.0
2018-Aug-14 04:25N 26°13' W 080°06'0 0.0
2018-Aug-14 04:00N 26°13' W 080°06'0 0.0
2018-Aug-14 03:21N 26°13' W 080°06'0 0.0
2018-Aug-14 02:51N 26°13' W 080°06'0 0.0
2018-Aug-14 02:21N 26°13' W 080°06'0 0.0
2018-Aug-14 01:51N 26°13' W 080°06'0 0.0
2018-Aug-14 01:24N 26°13' W 080°06'0 0.0
2018-Aug-14 00:51N 26°13' W 080°06'0 0.0
2018-Aug-14 00:21N 26°13' W 080°06'0 0.0
2018-Aug-13 23:51N 26°13' W 080°06'0 0.0
2018-Aug-13 23:21N 26°13' W 080°06'0 0.0
2018-Aug-13 22:57N 26°13' W 080°06'0 0.0
2018-Aug-13 21:51N 26°13' W 080°06'0 0.0
2018-Aug-13 20:09N 26°13' W 080°06'0 0.0
2018-Aug-13 19:57N 26°13' W 080°06'0 0.0
2018-Aug-13 19:15N 26°13' W 080°06'0 0.0
2018-Aug-13 18:57N 26°13' W 080°06'0 0.0
2018-Aug-13 18:30N 26°13' W 080°06'0 0.0
2018-Aug-13 17:45N 26°13' W 080°06'0 0.0
2018-Aug-13 17:27N 26°13' W 080°06'0 0.0
2018-Aug-13 16:45N 26°13' W 080°06'0 0.0
2018-Aug-13 16:30N 26°13' W 080°06'0 0.0
2018-Aug-13 15:57N 26°13' W 080°06'0 0.0
2018-Aug-13 15:27N 26°13' W 080°06'0 0.0
2018-Aug-13 15:00N 26°13' W 080°06'0 0.0
2018-Aug-13 14:30N 26°13' W 080°06'0 0.0
2018-Aug-13 13:45N 26°13' W 080°06'0 0.0
2018-Aug-13 13:03N 26°13' W 080°06'0 0.0
2018-Aug-13 12:51N 26°13' W 080°06'0 0.0
2018-Aug-13 12:30N 26°13' W 080°06'0 0.0
2018-Aug-13 11:51N 26°13' W 080°06'0 0.0
2018-Aug-13 11:21N 26°13' W 080°06'0 0.0
2018-Aug-13 10:48N 26°13' W 080°06'0 0.0
2018-Aug-13 10:21N 26°13' W 080°06'0 0.0
2018-Aug-13 09:51N 26°13' W 080°06'0 0.0
2018-Aug-13 09:21N 26°13' W 080°06'0 0.0
2018-Aug-13 08:54N 26°13' W 080°06'0 0.0
2018-Aug-13 08:24N 26°13' W 080°06'0 0.0
2018-Aug-13 07:54N 26°13' W 080°06'0 0.0
2018-Aug-13 07:21N 26°13' W 080°06'0 0.0
2018-Aug-13 06:54N 26°13' W 080°06'0 0.0
2018-Aug-13 06:21N 26°13' W 080°06'0 0.0
2018-Aug-13 05:57N 26°13' W 080°06'0 0.0
2018-Aug-13 05:27N 26°13' W 080°06'0 0.0
2018-Aug-13 04:57N 26°13' W 080°06'0 0.0
2018-Aug-13 04:24N 26°13' W 080°06'0 0.0
2018-Aug-13 03:57N 26°13' W 080°06'0 0.0
2018-Aug-13 03:09N 26°13' W 080°06'0 0.0
2018-Aug-13 02:57N 26°13' W 080°06'0 0.0
2018-Aug-13 02:30N 26°13' W 080°06'0 0.0
2018-Aug-13 01:13N 26°13' W 080°06'1 3.7
2018-Aug-13 00:59N 26°14' W 080°06'0 0.1
2018-Aug-13 00:19N 26°14' W 080°06'0 0.0
2018-Aug-12 23:31N 26°14' W 080°06'0 0.0
2018-Aug-12 23:01N 26°14' W 080°06'0 0.1
2018-Aug-12 22:51N 26°14' W 080°06'2 4.6
2018-Aug-12 22:29N 26°16' W 080°05'3 4.9
2018-Aug-12 21:56N 26°13' W 080°05'0 0.0
2018-Aug-12 21:29N 26°13' W 080°05'0 0.0
2018-Aug-12 20:55N 26°13' W 080°05'0 0.0
2018-Aug-12 20:30N 26°13' W 080°05'0 0.0
2018-Aug-12 19:58N 26°13' W 080°05'3 5.4
2018-Aug-12 19:27N 26°16' W 080°05'2 4.0
2018-Aug-12 18:53N 26°14' W 080°06'1 1.0
2018-Aug-12 18:19N 26°13' W 080°06'0 0.0
2018-Aug-12 17:58N 26°13' W 080°06'0 0.0
2018-Aug-12 17:19N 26°13' W 080°06'0 0.0
2018-Aug-12 16:34N 26°13' W 080°06'0 0.0
2018-Aug-12 16:16N 26°13' W 080°06'0 0.0
2018-Aug-12 15:49N 26°13' W 080°06'0 0.0
2018-Aug-12 14:49N 26°13' W 080°06'0 0.0
2018-Aug-12 14:07N 26°13' W 080°06'0 0.0
2018-Aug-12 13:49N 26°13' W 080°06'0 0.0
2018-Aug-12 13:07N 26°13' W 080°06'0 0.0
2018-Aug-12 12:49N 26°13' W 080°06'0 0.0
2018-Aug-12 12:21N 26°13' W 080°06'0 0.0
2018-Aug-12 12:00N 26°13' W 080°06'0 0.0
2018-Aug-12 11:30N 26°13' W 080°06'0 0.0
2018-Aug-12 11:00N 26°13' W 080°06'0 0.0
2018-Aug-12 10:30N 26°13' W 080°06'0 0.0
2018-Aug-12 10:00N 26°13' W 080°06'0 0.0
2018-Aug-12 09:18N 26°13' W 080°06'0 0.0
2018-Aug-12 09:00N 26°13' W 080°06'0 0.0
2018-Aug-12 08:30N 26°13' W 080°06'0 0.0
2018-Aug-12 08:00N 26°13' W 080°06'0 0.0
2018-Aug-12 07:30N 26°13' W 080°06'0 0.0
2018-Aug-12 07:00N 26°13' W 080°06'0 0.0
2018-Aug-12 06:18N 26°13' W 080°06'0 0.0
2018-Aug-12 06:00N 26°13' W 080°06'0 0.0
2018-Aug-12 05:30N 26°13' W 080°06'0 0.0
2018-Aug-12 04:51N 26°13' W 080°06'0 0.0
2018-Aug-12 04:18N 26°13' W 080°06'0 0.0
2018-Aug-12 03:51N 26°13' W 080°06'0 0.0
2018-Aug-12 03:24N 26°13' W 080°06'0 0.0
2018-Aug-12 02:54N 26°13' W 080°06'0 0.0
2018-Aug-12 02:24N 26°13' W 080°06'0 0.0
2018-Aug-12 01:51N 26°13' W 080°06'0 0.0
2018-Aug-12 01:21N 26°13' W 080°06'0 0.0
2018-Aug-12 00:54N 26°13' W 080°06'0 0.0
2018-Aug-12 00:24N 26°13' W 080°06'0 0.0
2018-Aug-11 23:51N 26°13' W 080°06'0 0.0
2018-Aug-11 23:27N 26°13' W 080°06'0 0.0
2018-Aug-11 22:57N 26°13' W 080°06'0 0.0
2018-Aug-11 22:27N 26°13' W 080°06'0 0.0
2018-Aug-11 21:30N 26°13' W 080°06'0 0.0
2018-Aug-11 21:00N 26°13' W 080°06'0 0.0
2018-Aug-11 20:30N 26°13' W 080°06'0 0.0
2018-Aug-11 20:00N 26°13' W 080°06'0 0.0
2018-Aug-11 19:28N 26°13' W 080°06'0 0.0
2018-Aug-11 18:58N 26°13' W 080°06'0 0.0
2018-Aug-11 18:16N 26°13' W 080°06'0 0.0
2018-Aug-11 17:49N 26°13' W 080°06'0 0.0
2018-Aug-11 15:49N 26°13' W 080°06'0 0.0
2018-Aug-11 15:19N 26°13' W 080°06'0 0.0
2018-Aug-11 14:49N 26°13' W 080°06'0 0.0
2018-Aug-11 14:07N 26°13' W 080°06'0 0.0
2018-Aug-11 13:55N 26°13' W 080°06'0 0.0
2018-Aug-11 13:25N 26°13' W 080°06'0 0.0
2018-Aug-11 12:55N 26°13' W 080°06'0 0.0
2018-Aug-11 11:31N 26°13' W 080°06'0 0.0
2018-Aug-11 10:19N 26°13' W 080°06'0 0.0
2018-Aug-11 09:49N 26°13' W 080°06'0 0.0
2018-Aug-11 09:19N 26°13' W 080°06'0 0.0
2018-Aug-11 08:46N 26°13' W 080°06'0 0.0
2018-Aug-11 08:03N 26°13' W 080°06'0 0.0
2018-Aug-11 07:46N 26°13' W 080°06'0 0.0
2018-Aug-11 07:19N 26°13' W 080°06'0 0.0
2018-Aug-11 06:52N 26°13' W 080°06'0 0.0
2018-Aug-11 06:22N 26°13' W 080°06'0 0.0
2018-Aug-11 05:55N 26°13' W 080°06'0 0.0
2018-Aug-11 05:25N 26°13' W 080°06'0 0.0
2018-Aug-11 04:55N 26°13' W 080°06'0 0.0
2018-Aug-11 04:25N 26°13' W 080°06'0 0.0
2018-Aug-11 03:55N 26°13' W 080°06'0 0.0
2018-Aug-11 03:28N 26°13' W 080°06'0 0.0
2018-Aug-11 02:55N 26°13' W 080°06'0 0.0
2018-Aug-11 02:28N 26°13' W 080°06'0 0.0
2018-Aug-11 01:55N 26°13' W 080°06'0 0.0
2018-Aug-11 01:10N 26°13' W 080°06'0 0.0
2018-Aug-11 00:58N 26°13' W 080°06'0 0.0
2018-Aug-11 00:28N 26°13' W 080°06'0 0.0
2018-Aug-10 23:58N 26°13' W 080°06'0 0.0
2018-Aug-10 23:25N 26°13' W 080°06'0 0.0
2018-Aug-10 22:58N 26°13' W 080°06'0 0.0
2018-Aug-10 22:28N 26°13' W 080°06'0 0.0
2018-Aug-10 20:58N 26°13' W 080°06'0 0.0
2018-Aug-10 20:28N 26°13' W 080°06'0 0.0
2018-Aug-10 19:04N 26°13' W 080°06'0 0.0
2018-Aug-10 18:34N 26°13' W 080°06'0 0.0
2018-Aug-10 18:22N 26°13' W 080°06'0 0.0
2018-Aug-10 17:34N 26°13' W 080°06'0 0.0
2018-Aug-10 17:22N 26°13' W 080°06'0 0.0
2018-Aug-10 16:52N 26°13' W 080°06'0 0.0
2018-Aug-10 16:22N 26°13' W 080°06'0 0.0
2018-Aug-10 15:52N 26°13' W 080°06'0 0.0
2018-Aug-10 15:22N 26°13' W 080°06'0 0.0
2018-Aug-10 14:52N 26°13' W 080°06'0 0.0
2018-Aug-10 14:25N 26°13' W 080°06'0 0.0
2018-Aug-10 13:52N 26°13' W 080°06'0 0.0
2018-Aug-10 13:25N 26°13' W 080°06'0 0.0
2018-Aug-10 12:55N 26°13' W 080°06'0 0.0
2018-Aug-10 12:28N 26°13' W 080°06'0 0.0
2018-Aug-10 11:58N 26°13' W 080°06'0 0.0
2018-Aug-10 11:30N 26°13' W 080°06'0 0.0
2018-Aug-10 10:58N 26°13' W 080°06'0 0.0
2018-Aug-10 10:28N 26°13' W 080°06'0 0.0
2018-Aug-10 09:55N 26°13' W 080°06'0 0.0
2018-Aug-10 09:28N 26°13' W 080°06'0 0.0
2018-Aug-10 08:55N 26°13' W 080°06'0 0.0
2018-Aug-10 08:28N 26°13' W 080°06'0 0.0
2018-Aug-10 07:58N 26°13' W 080°06'0 0.0
2018-Aug-10 07:16N 26°13' W 080°06'0 0.0
2018-Aug-10 06:58N 26°13' W 080°06'0 0.0
2018-Aug-10 06:31N 26°13' W 080°06'0 0.0
2018-Aug-10 05:46N 26°13' W 080°06'0 0.0
2018-Aug-10 05:31N 26°13' W 080°06'0 0.0
2018-Aug-10 04:49N 26°13' W 080°06'0 0.0
2018-Aug-10 04:19N 26°13' W 080°06'0 0.0
2018-Aug-10 03:49N 26°13' W 080°06'0 0.0
2018-Aug-10 03:31N 26°13' W 080°06'0 0.0
2018-Aug-10 03:01N 26°13' W 080°06'0 0.0
2018-Aug-10 02:31N 26°13' W 080°06'0 0.0
2018-Aug-10 02:01N 26°13' W 080°06'0 0.0
2018-Aug-10 01:31N 26°13' W 080°06'0 0.0
2018-Aug-10 01:00N 26°13' W 080°06'0 0.0
2018-Aug-10 00:22N 26°13' W 080°06'0 0.0
2018-Aug-09 23:51N 26°13' W 080°06'0 0.0
2018-Aug-09 23:06N 26°13' W 080°06'0 0.0
2018-Aug-09 22:48N 26°13' W 080°06'0 0.0
2018-Aug-09 22:21N 26°13' W 080°06'0 0.0
2018-Aug-09 21:54N 26°13' W 080°06'0 0.0
2018-Aug-09 21:24N 26°13' W 080°06'0 0.0
2018-Aug-09 20:51N 26°13' W 080°06'0 0.0
2018-Aug-09 20:24N 26°13' W 080°06'0 0.0
2018-Aug-09 19:54N 26°13' W 080°06'0 0.0
2018-Aug-09 19:24N 26°13' W 080°06'0 0.0
2018-Aug-09 18:57N 26°13' W 080°06'0 0.0
2018-Aug-09 18:27N 26°13' W 080°06'0 0.0
2018-Aug-09 17:54N 26°13' W 080°06'0 0.0
2018-Aug-09 17:24N 26°13' W 080°06'0 0.0
2018-Aug-09 16:57N 26°13' W 080°06'0 0.0
2018-Aug-09 16:24N 26°13' W 080°06'0 0.0
2018-Aug-09 16:00N 26°13' W 080°06'0 0.0
2018-Aug-09 15:30N 26°13' W 080°06'0 0.0
2018-Aug-09 15:00N 26°13' W 080°06'0 0.0
2018-Aug-09 14:30N 26°13' W 080°06'0 0.0
2018-Aug-09 14:00N 26°13' W 080°06'0 0.0
2018-Aug-09 13:30N 26°13' W 080°06'0 0.0
2018-Aug-09 13:00N 26°13' W 080°06'0 0.0
2018-Aug-09 12:30N 26°13' W 080°06'0 0.0
2018-Aug-09 12:00N 26°13' W 080°06'0 0.0
2018-Aug-09 11:30N 26°13' W 080°06'0 0.0
2018-Aug-09 10:33N 26°13' W 080°06'0 0.0
2018-Aug-09 10:30N 26°13' W 080°06'0 0.0
2018-Aug-09 10:00N 26°13' W 080°06'0 0.0
2018-Aug-09 09:30N 26°13' W 080°06'0 0.0
2018-Aug-09 09:00N 26°13' W 080°06'0 0.0
2018-Aug-09 08:21N 26°13' W 080°06'0 0.0
2018-Aug-09 07:51N 26°13' W 080°06'0 0.0
2018-Aug-09 07:21N 26°13' W 080°06'0 0.0
2018-Aug-09 06:54N 26°13' W 080°06'0 0.0
2018-Aug-09 06:21N 26°13' W 080°06'0 0.0
2018-Aug-09 05:48N 26°13' W 080°06'0 0.0
2018-Aug-09 05:20N 26°13' W 080°06'0 0.0
2018-Aug-09 04:50N 26°13' W 080°06'0 0.0
2018-Aug-09 04:23N 26°13' W 080°06'0 0.0
2018-Aug-09 03:53N 26°13' W 080°06'0 0.0
2018-Aug-09 03:23N 26°13' W 080°06'0 0.0
2018-Aug-09 02:53N 26°13' W 080°06'0 0.0
2018-Aug-09 02:20N 26°13' W 080°06'0 0.0
2018-Aug-09 01:53N 26°13' W 080°06'0 0.0
2018-Aug-09 01:26N 26°13' W 080°06'0 0.0
2018-Aug-09 00:56N 26°13' W 080°06'0 0.0
2018-Aug-09 00:26N 26°13' W 080°06'0 0.0
2018-Aug-08 23:56N 26°13' W 080°06'0 0.0
2018-Aug-08 23:26N 26°13' W 080°06'0 0.0
2018-Aug-08 22:38N 26°13' W 080°06'0 0.0
2018-Aug-08 22:26N 26°13' W 080°06'0 0.0
2018-Aug-08 21:56N 26°13' W 080°06'0 0.0
2018-Aug-08 21:23N 26°13' W 080°06'0 0.0
2018-Aug-08 20:56N 26°13' W 080°06'0 0.0
2018-Aug-08 20:26N 26°13' W 080°06'0 0.0
2018-Aug-08 19:49N 26°13' W 080°06'0 0.0
2018-Aug-08 19:26N 26°13' W 080°06'0 0.0
2018-Aug-08 18:37N 26°13' W 080°06'0 0.0
2018-Aug-08 17:37N 26°13' W 080°06'0 0.0
2018-Aug-08 17:07N 26°13' W 080°06'0 0.0
2018-Aug-08 16:48N 26°13' W 080°06'0 0.0
2018-Aug-08 16:24N 26°13' W 080°06'0 0.0
2018-Aug-08 15:54N 26°13' W 080°06'0 0.0
2018-Aug-08 15:24N 26°13' W 080°06'0 0.0
2018-Aug-08 14:54N 26°13' W 080°06'0 0.0
2018-Aug-08 14:24N 26°13' W 080°06'0 0.0
2018-Aug-08 13:57N 26°13' W 080°06'0 0.0
2018-Aug-08 13:27N 26°13' W 080°06'0 0.0
2018-Aug-08 12:57N 26°13' W 080°06'0 0.0
2018-Aug-08 12:24N 26°13' W 080°06'0 0.0
2018-Aug-08 11:57N 26°13' W 080°06'0 0.0
2018-Aug-08 11:30N 26°13' W 080°06'0 0.0
2018-Aug-08 11:00N 26°13' W 080°06'0 0.0
2018-Aug-08 10:30N 26°13' W 080°06'0 0.0
2018-Aug-08 09:45N 26°13' W 080°06'0 0.0
2018-Aug-08 09:30N 26°13' W 080°06'0 0.0
2018-Aug-08 09:00N 26°13' W 080°06'0 0.0
2018-Aug-08 08:30N 26°13' W 080°06'0 0.0
2018-Aug-08 08:00N 26°13' W 080°06'0 0.0
2018-Aug-08 07:30N 26°13' W 080°06'0 0.0
2018-Aug-08 07:00N 26°13' W 080°06'0 0.0
2018-Aug-08 06:30N 26°13' W 080°06'0 0.0
2018-Aug-08 06:00N 26°13' W 080°06'0 0.0
2018-Aug-08 05:30N 26°13' W 080°06'0 0.0
2018-Aug-08 04:51N 26°13' W 080°06'0 0.0
2018-Aug-08 04:21N 26°13' W 080°06'0 0.0
2018-Aug-08 03:48N 26°13' W 080°06'0 0.0
2018-Aug-08 03:24N 26°13' W 080°06'0 0.0
2018-Aug-08 02:54N 26°13' W 080°06'0 0.0
2018-Aug-08 02:24N 26°13' W 080°06'0 0.0
2018-Aug-08 01:54N 26°13' W 080°06'0 0.0
2018-Aug-08 01:21N 26°13' W 080°06'0 0.0
2018-Aug-08 00:42N 26°13' W 080°06'0 0.0
2018-Aug-08 00:21N 26°13' W 080°06'0 0.0
2018-Aug-07 23:57N 26°13' W 080°06'0 0.0
2018-Aug-07 23:28N 26°13' W 080°06'0 0.0
2018-Aug-07 22:55N 26°13' W 080°06'0 0.0
2018-Aug-07 22:28N 26°13' W 080°06'0 0.0
2018-Aug-07 21:58N 26°13' W 080°06'0 0.0
2018-Aug-07 21:28N 26°13' W 080°06'0 0.0
2018-Aug-07 20:51N 26°13' W 080°06'0 0.0
2018-Aug-07 20:21N 26°13' W 080°06'0 0.0
2018-Aug-07 19:51N 26°13' W 080°06'0 0.0
2018-Aug-07 19:24N 26°13' W 080°06'0 0.0
2018-Aug-07 18:51N 26°13' W 080°06'0 0.0
2018-Aug-07 18:21N 26°13' W 080°06'0 0.0
2018-Aug-07 17:54N 26°13' W 080°06'0 0.0
2018-Aug-07 17:24N 26°13' W 080°06'0 0.0
2018-Aug-07 16:57N 26°13' W 080°06'0 0.0
2018-Aug-07 16:27N 26°13' W 080°06'0 0.0
2018-Aug-07 15:57N 26°13' W 080°06'0 0.0
2018-Aug-07 15:27N 26°13' W 080°06'0 0.0
2018-Aug-07 14:57N 26°13' W 080°06'0 0.0
2018-Aug-07 14:30N 26°13' W 080°06'0 0.0
2018-Aug-07 14:00N 26°13' W 080°06'0 0.0
2018-Aug-07 13:24N 26°13' W 080°06'0 0.0
2018-Aug-07 13:00N 26°13' W 080°06'0 0.0
2018-Aug-07 12:27N 26°13' W 080°06'0 0.0
2018-Aug-07 12:00N 26°13' W 080°06'0 0.0
2018-Aug-07 11:15N 26°13' W 080°06'0 0.0
2018-Aug-07 10:45N 26°13' W 080°06'0 0.0
2018-Aug-07 10:15N 26°13' W 080°06'0 0.0
2018-Aug-07 09:45N 26°13' W 080°06'0 0.0
2018-Aug-07 09:15N 26°13' W 080°06'0 0.0
2018-Aug-07 08:45N 26°13' W 080°06'0 0.0
2018-Aug-07 08:30N 26°13' W 080°06'0 0.0
2018-Aug-07 07:21N 26°13' W 080°06'0 0.0
2018-Aug-07 06:51N 26°13' W 080°06'0 0.0
2018-Aug-07 06:21N 26°13' W 080°06'0 0.0
2018-Aug-07 05:51N 26°13' W 080°06'0 0.0
2018-Aug-07 05:21N 26°13' W 080°06'0 0.0
2018-Aug-07 04:51N 26°13' W 080°06'0 0.0
2018-Aug-07 04:21N 26°13' W 080°06'0 0.1
2018-Aug-07 03:26N 26°13' W 080°06'2 4.4
2018-Aug-07 02:57N 26°11' W 080°06'3 5.8
2018-Aug-07 02:26N 26°08' W 080°07'2 3.7
2018-Aug-07 01:53N 26°06' W 080°07'0 0.0
2018-Aug-07 01:23N 26°06' W 080°07'0 0.0
2018-Aug-07 00:50N 26°06' W 080°07'0 0.1
2018-Aug-07 00:30N 26°06' W 080°07'2 4.6
2018-Aug-07 00:00N 26°08' W 080°06'3 5.7
2018-Aug-06 23:28N 26°11' W 080°06'2 3.1
2018-Aug-06 22:53N 26°13' W 080°06'0 0.0
2018-Aug-06 22:24N 26°13' W 080°06'1 2.3
2018-Aug-06 22:00N 26°14' W 080°06'0 0.1
2018-Aug-06 21:14N 26°14' W 080°06'0 0.0
2018-Aug-06 20:56N 26°14' W 080°06'0 0.0
2018-Aug-06 20:05N 26°14' W 080°06'0 0.8
2018-Aug-06 19:51N 26°14' W 080°06'1 1.0
2018-Aug-06 19:02N 26°13' W 080°06'0 0.0
2018-Aug-06 18:44N 26°13' W 080°06'0 0.0
2018-Aug-06 18:20N 26°13' W 080°06'0 0.0
2018-Aug-06 17:50N 26°13' W 080°06'0 0.0
2018-Aug-06 17:20N 26°13' W 080°06'0 0.0
2018-Aug-06 16:50N 26°13' W 080°06'0 0.0
2018-Aug-06 16:23N 26°13' W 080°06'0 0.0
2018-Aug-06 15:53N 26°13' W 080°06'0 0.0
2018-Aug-06 15:20N 26°13' W 080°06'0 0.0
2018-Aug-06 14:53N 26°13' W 080°06'0 0.0
2018-Aug-06 14:23N 26°13' W 080°06'0 0.0
2018-Aug-06 13:50N 26°13' W 080°06'0 0.0
2018-Aug-06 13:26N 26°13' W 080°06'0 0.0
2018-Aug-06 12:57N 26°13' W 080°06'0 0.0
2018-Aug-06 12:23N 26°13' W 080°06'0 0.0
2018-Aug-06 11:56N 26°13' W 080°06'0 0.0
2018-Aug-06 11:23N 26°13' W 080°06'0 0.0
2018-Aug-06 10:38N 26°13' W 080°06'0 0.0
2018-Aug-06 10:26N 26°13' W 080°06'0 0.0
2018-Aug-06 09:56N 26°13' W 080°06'0 0.0
2018-Aug-06 09:26N 26°13' W 080°06'0 0.0
2018-Aug-06 08:56N 26°13' W 080°06'0 0.0
2018-Aug-06 08:29N 26°13' W 080°06'0 0.0
2018-Aug-06 07:59N 26°13' W 080°06'0 0.0
2018-Aug-06 07:29N 26°13' W 080°06'0 0.0
2018-Aug-06 06:59N 26°13' W 080°06'0 0.0
2018-Aug-06 06:29N 26°13' W 080°06'0 0.0
2018-Aug-06 05:59N 26°13' W 080°06'0 0.0
2018-Aug-06 05:26N 26°13' W 080°06'0 0.0
2018-Aug-06 04:59N 26°13' W 080°06'0 0.0
2018-Aug-06 04:29N 26°13' W 080°06'0 0.0
2018-Aug-06 03:59N 26°13' W 080°06'0 0.0
2018-Aug-06 03:29N 26°13' W 080°06'0 0.0
2018-Aug-06 02:59N 26°13' W 080°06'0 0.0
2018-Aug-06 02:29N 26°13' W 080°06'0 0.0
2018-Aug-06 01:50N 26°13' W 080°06'0 0.1
2018-Aug-06 01:14N 26°13' W 080°06'1 3.5
2018-Aug-06 00:58N 26°14' W 080°06'2 3.4
2018-Aug-06 00:28N 26°16' W 080°05'0 0.1
2018-Aug-05 23:53N 26°16' W 080°05'2 4.5
2018-Aug-05 23:27N 26°14' W 080°06'1 1.7
2018-Aug-05 23:00N 26°13' W 080°06'0 0.0
2018-Aug-05 22:30N 26°13' W 080°06'0 0.0
2018-Aug-05 21:48N 26°13' W 080°06'0 0.0
2018-Aug-05 21:18N 26°13' W 080°06'0 0.0
2018-Aug-05 21:00N 26°13' W 080°06'0 0.0
2018-Aug-05 20:21N 26°13' W 080°06'0 0.0
2018-Aug-05 20:00N 26°13' W 080°06'0 0.0
2018-Aug-05 19:21N 26°13' W 080°06'0 0.0
2018-Aug-05 18:44N 26°13' W 080°06'0 1.8
2018-Aug-05 18:30N 26°13' W 080°06'2 1.0
2018-Aug-05 16:28N 26°11' W 080°06'2 4.0
2018-Aug-05 15:59N 26°13' W 080°06'0 0.9
2018-Aug-05 15:30N 26°13' W 080°06'611.5
2018-Aug-05 15:00N 26°19' W 080°06'6 5.0
2018-Aug-05 13:51N 26°13' W 080°06'0 0.0
2018-Aug-05 13:15N 26°13' W 080°06'0 0.0
2018-Aug-05 12:51N 26°13' W 080°06'0 0.0
2018-Aug-05 12:21N 26°13' W 080°06'0 0.0
2018-Aug-05 11:54N 26°13' W 080°06'0 0.0
2018-Aug-05 11:21N 26°13' W 080°06'0 0.0
2018-Aug-05 10:51N 26°13' W 080°06'0 0.0
2018-Aug-05 10:21N 26°13' W 080°06'0 0.0
2018-Aug-05 09:51N 26°13' W 080°06'0 0.0
2018-Aug-05 09:21N 26°13' W 080°06'0 0.0
2018-Aug-05 08:54N 26°13' W 080°06'0 0.0
2018-Aug-05 08:27N 26°13' W 080°06'0 0.0
2018-Aug-05 07:42N 26°13' W 080°06'0 0.0
2018-Aug-05 07:24N 26°13' W 080°06'510.6
2018-Aug-05 06:54N 26°19' W 080°06'3 6.6
2018-Aug-05 06:24N 26°15' W 080°06'2 4.9
2018-Aug-05 06:00N 26°13' W 080°06'0 0.0
2018-Aug-05 05:27N 26°13' W 080°06'0 0.0
2018-Aug-05 05:00N 26°13' W 080°06'0 0.0
2018-Aug-05 04:15N 26°13' W 080°06'0 0.0
2018-Aug-05 03:57N 26°13' W 080°06'0 0.0
2018-Aug-05 03:30N 26°13' W 080°06'0 0.0
2018-Aug-05 02:57N 26°13' W 080°06'0 0.0
2018-Aug-05 02:30N 26°13' W 080°06'0 0.0
2018-Aug-05 01:57N 26°13' W 080°06'0 0.0
2018-Aug-05 01:30N 26°13' W 080°06'0 0.0
2018-Aug-05 00:45N 26°13' W 080°06'0 0.0
2018-Aug-05 00:18N 26°13' W 080°06'0 0.0
2018-Aug-04 23:51N 26°13' W 080°06'410.0
2018-Aug-04 23:30N 26°17' W 080°06'4 7.0
2018-Aug-04 23:00N 26°13' W 080°06'0 0.0
2018-Aug-04 22:03N 26°13' W 080°06'0 0.0
2018-Aug-04 21:51N 26°13' W 080°06'0 0.0
2018-Aug-04 21:03N 26°13' W 080°06'0 0.0
2018-Aug-04 20:51N 26°13' W 080°06'0 0.0
2018-Aug-04 20:24N 26°13' W 080°06'0 0.0
2018-Aug-04 19:54N 26°13' W 080°06'0 0.0
2018-Aug-04 19:24N 26°13' W 080°06'0 0.0
2018-Aug-04 18:54N 26°13' W 080°06'0 0.0
2018-Aug-04 18:24N 26°13' W 080°06'0 0.0
2018-Aug-04 17:54N 26°13' W 080°06'0 0.0
2018-Aug-04 17:27N 26°13' W 080°06'0 0.0
2018-Aug-04 16:57N 26°13' W 080°06'0 0.0
2018-Aug-04 16:27N 26°13' W 080°06'0 0.0
2018-Aug-04 15:57N 26°13' W 080°06'0 0.0
2018-Aug-04 15:27N 26°13' W 080°06'0 0.0
2018-Aug-04 14:57N 26°13' W 080°06'0 0.0
2018-Aug-04 14:30N 26°13' W 080°06'0 0.0
2018-Aug-04 14:00N 26°13' W 080°06'0 0.0
2018-Aug-04 13:30N 26°13' W 080°06'0 0.0
2018-Aug-04 13:00N 26°13' W 080°06'0 0.0
2018-Aug-04 12:30N 26°13' W 080°06'0 0.0
2018-Aug-04 12:00N 26°13' W 080°06'0 0.0
2018-Aug-04 11:30N 26°13' W 080°06'0 0.0
2018-Aug-04 11:00N 26°13' W 080°06'0 0.0
2018-Aug-04 10:03N 26°13' W 080°06'0 0.0
2018-Aug-04 10:00N 26°13' W 080°06'0 0.0
2018-Aug-04 09:18N 26°13' W 080°06'0 0.0
2018-Aug-04 08:48N 26°13' W 080°06'0 0.0
2018-Aug-04 08:30N 26°13' W 080°06'0 0.0
2018-Aug-04 08:00N 26°13' W 080°06'0 0.0
2018-Aug-04 07:30N 26°13' W 080°06'  

Dump ship's entire track history